メインページ
METAR-TAF:

METAR-TAF

空港 :

ダマスカス, シリア

ダマスカス国際空港

緯度: 33-25N, 経度: 036-31E, 海抜: 608m

現時点の気象観測

当レポートは1時間35分前の22:00(UTC)に作成
南西の風 16kt
気温 10°C
湿度 62%
気圧 1015 hPa
視程10km以上
1,500メートル以下は雲なし、積乱雲なし

METAR: OSDI 232200Z 22016KT CAVOK 10/03 Q1015

時間: 02:35 (23:35 UTC)

予報

予報は23日の 18時(UTC)から 24日の 24時(UTC)まで有効
南/南西の風 6kt
視程10km以上
1,500メートル以下は雲なし、積乱雲なし
24日の 12時(UTC)から 24日の 18時(UTC)まで一時的に
南西の風 15kt
視程10km以上
高度3000ftの雲はほとんどない

TAF: OSDI 2318/2424 20006KT CAVOK TEMPO 2412/2418 22015KT 9999 FEW030

4,000以上の空港の気象観測と天気予報(METAR報とTAF報)

利用可能な観測所は地図上に黄色い丸と赤い丸で示す。

丸の上にカーソルを重ねると観測所名を参照できる。

次にクリックすると気象観測と天気予報を参照できる。

マップの切り替え:黒色「×」印の緑ボタンをクリックして拡大、「-」印の緑ボタンをクリックして縮小、緑色の三角印をクリックして隣りの地図に切り替え


METAR-TAF: